Time;durP1;ratioP1;P1;durP2;ratioP2;P2;SDS_P1;SDS_P2;PMS_P1;PMS_P2;Temp;Humidity;BMP_temperature;BMP_pressure;BME280_temperature;BME280_humidity;BME280_pressure;Samples;Min_cycle;Max_cycle;Signal;HPM_P1;HPM_P2
2023/06/29 00:01:15;;;;;;;11.63;6.95;;;;;;;15.77;78.64;99983.59;5133166;27;20599;-61
2023/06/29 00:03:43;;;;;;;6.97;6.38;;;;;;;15.73;78.55;99971.63;5136037;27;20634;-60
2023/06/29 00:06:11;;;;;;;7.55;6.85;;;;;;;15.73;78.87;99974.22;5133186;27;20285;-61
2023/06/29 00:08:40;;;;;;;7.78;6.55;;;;;;;15.70;78.88;99985.53;5132037;27;20199;-61
2023/06/29 00:11:12;;;;;;;7.03;5.97;;;;;;;15.68;79.02;99981.28;5134458;27;20199;-61
2023/06/29 00:13:40;;;;;;;6.57;5.97;;;;;;;15.66;78.55;99986.56;5133061;27;20199;-61
2023/06/29 00:16:10;;;;;;;7.30;6.55;;;;;;;15.65;78.94;99978.78;5133939;27;20600;-59
2023/06/29 00:18:38;;;;;;;8.77;6.30;;;;;;;15.65;78.93;99976.19;5136134;27;20230;-61
2023/06/29 00:21:06;;;;;;;6.35;5.70;;;;;;;15.69;78.86;99985.63;5133482;27;20212;-59
2023/06/29 00:23:35;;;;;;;8.98;6.32;;;;;;;15.69;78.40;99980.41;5131401;27;20203;-61
2023/06/29 00:26:05;;;;;;;6.32;5.70;;;;;;;15.67;78.40;99993.44;5135639;27;20618;-60
2023/06/29 00:28:33;;;;;;;7.03;6.38;;;;;;;15.63;78.11;99991.81;5132716;27;20558;-62
2023/06/29 00:31:01;;;;;;;8.38;5.82;;;;;;;15.65;78.25;99999.56;5133084;27;20210;-60
2023/06/29 00:33:31;;;;;;;7.22;6.57;;;;;;;15.64;78.61;99990.91;5132629;27;20292;-61
2023/06/29 00:35:59;;;;;;;5.93;5.43;;;;;;;15.64;78.35;99997.84;5134171;27;20262;-62
2023/06/29 00:38:27;;;;;;;6.32;5.72;;;;;;;15.66;78.02;99993.50;5135168;27;20248;-61
2023/06/29 00:40:55;;;;;;;6.43;5.82;;;;;;;15.63;78.04;99991.81;5138381;27;20589;-63
2023/06/29 00:43:24;;;;;;;6.80;6.10;;;;;;;15.64;78.06;99987.47;5130794;27;20730;-60
2023/06/29 00:45:52;;;;;;;6.53;5.93;;;;;;;15.61;78.24;99991.03;5134316;27;20199;-62
2023/06/29 00:48:20;;;;;;;6.70;5.90;;;;;;;15.60;78.14;99980.69;5130977;27;20198;-62
2023/06/29 00:50:50;;;;;;;6.70;5.72;;;;;;;15.58;78.07;99979.91;5131969;27;20235;-60
2023/06/29 00:53:18;;;;;;;8.20;5.95;;;;;;;15.57;78.04;99991.16;5132162;27;20817;-62
2023/06/29 00:55:46;;;;;;;6.45;5.82;;;;;;;15.54;77.81;99983.47;5132416;27;20878;-62
2023/06/29 00:58:15;;;;;;;6.53;5.93;;;;;;;15.54;78.02;99986.06;5132066;27;20198;-61
2023/06/29 01:00:43;;;;;;;7.22;5.45;;;;;;;15.46;78.17;99969.00;5130713;27;20207;-61
2023/06/29 01:03:12;;;;;;;8.38;6.47;;;;;;;15.54;78.04;99973.06;5131457;27;20207;-61
2023/06/29 01:05:41;;;;;;;7.35;6.65;;;;;;;15.52;78.03;99967.94;5132289;27;20198;-60
2023/06/29 01:08:18;;;;;;;8.68;5.57;;;;;;;15.51;77.81;99966.25;5130721;27;20228;-62
2023/06/29 01:10:48;;;;;;;8.10;6.30;;;;;;;15.53;77.90;99976.59;5135887;27;20641;-60
2023/06/29 01:13:18;;;;;;;6.30;5.80;;;;;;;15.50;78.04;99969.75;5128439;27;21039;-61
2023/06/29 01:15:47;;;;;;;5.73;5.23;;;;;;;15.49;77.81;99975.84;5132925;27;20312;-62
2023/06/29 01:18:16;;;;;;;7.10;5.97;;;;;;;15.44;77.78;99973.41;5130864;27;20222;-61
2023/06/29 01:20:49;;;;;;;6.22;5.63;;;;;;;15.41;78.18;99973.50;5133208;27;20218;-60
2023/06/29 01:23:24;;;;;;;6.97;5.57;;;;;;;15.38;78.18;99970.13;5130545;27;20199;-60
2023/06/29 01:25:55;;;;;;;5.35;4.85;;;;;;;15.37;78.23;99973.66;5133763;27;20226;-60
2023/06/29 01:28:23;;;;;;;6.30;5.70;;;;;;;15.36;78.32;99969.38;5134269;27;20234;-61
2023/06/29 01:30:51;;;;;;;6.07;5.47;;;;;;;15.34;78.09;99968.56;5132000;27;20567;-61
2023/06/29 01:33:22;;;;;;;6.07;5.43;;;;;;;15.33;78.42;99961.66;5128880;27;20561;-61
2023/06/29 01:35:54;;;;;;;5.93;5.30;;;;;;;15.34;78.49;99963.34;5130366;27;20704;-61
2023/06/29 01:38:27;;;;;;;6.30;5.30;;;;;;;15.33;77.95;99966.84;5128174;27;20207;-60
2023/06/29 01:40:58;;;;;;;7.90;5.40;;;;;;;15.30;78.21;99967.78;5139316;27;20237;-61
2023/06/29 01:43:29;;;;;;;6.40;5.80;;;;;;;15.30;78.15;99962.59;5133144;27;20248;-62
2023/06/29 01:45:58;;;;;;;7.03;6.03;;;;;;;15.27;78.51;99970.47;5137467;27;20202;-62
2023/06/29 01:48:27;;;;;;;6.25;5.65;;;;;;;15.26;78.50;99965.34;5136006;27;20610;-60
2023/06/29 01:50:55;;;;;;;6.25;5.70;;;;;;;15.23;78.53;99961.94;5132909;27;20199;-62
2023/06/29 01:53:23;;;;;;;7.18;5.88;;;;;;;15.23;78.39;99966.28;5130945;27;20669;-60
2023/06/29 01:55:51;;;;;;;6.05;5.45;;;;;;;15.19;78.42;99954.31;5133932;27;20207;-60
2023/06/29 01:58:20;;;;;;;6.38;5.43;;;;;;;15.18;78.57;99955.22;5138222;27;20227;-61
2023/06/29 02:00:49;;;;;;;7.07;5.57;;;;;;;15.13;78.73;99959.69;5137546;27;20215;-62
2023/06/29 02:03:17;;;;;;;6.25;5.68;;;;;;;15.11;78.74;99969.28;5134745;27;20195;-60
2023/06/29 02:05:45;;;;;;;7.20;6.40;;;;;;;15.10;79.22;99976.22;5136653;27;20232;-62
2023/06/29 02:08:13;;;;;;;7.07;5.68;;;;;;;15.04;78.92;99970.38;5135077;27;20734;-61
2023/06/29 02:10:41;;;;;;;6.35;5.70;;;;;;;15.00;79.41;99969.63;5133276;27;20253;-61
2023/06/29 02:13:09;;;;;;;7.03;6.43;;;;;;;14.98;79.45;99974.00;5134595;27;20206;-61
2023/06/29 02:15:38;;;;;;;7.70;6.77;;;;;;;14.97;79.69;99980.94;5134678;27;20227;-61
2023/06/29 02:18:06;;;;;;;7.97;6.05;;;;;;;14.96;79.84;99981.00;5136700;27;20245;-61
2023/06/29 02:20:35;;;;;;;7.77;6.10;;;;;;;14.96;79.42;99978.41;5133545;27;20213;-61
2023/06/29 02:23:03;;;;;;;6.63;6.03;;;;;;;14.95;79.58;99987.94;5136172;27;20209;-60
2023/06/29 02:25:31;;;;;;;8.47;6.37;;;;;;;14.90;79.71;99997.56;5135160;27;20600;-62
2023/06/29 02:27:59;;;;;;;7.15;6.20;;;;;;;14.92;79.92;99995.81;5132659;27;20205;-60
2023/06/29 02:30:27;;;;;;;6.33;5.73;;;;;;;14.90;80.00;100007.09;5132226;27;20896;-61
2023/06/29 02:32:56;;;;;;;7.80;5.45;;;;;;;14.89;79.83;100006.25;5136571;27;20230;-61
2023/06/29 02:35:24;;;;;;;7.50;6.53;;;;;;;14.91;79.91;100009.69;5132565;27;20241;-61
2023/06/29 02:37:52;;;;;;;8.77;6.13;;;;;;;14.94;79.96;100006.97;5137787;27;20290;-62
2023/06/29 02:40:20;;;;;;;7.05;6.35;;;;;;;14.95;79.89;100006.09;5131837;27;20231;-62
2023/06/29 02:42:48;;;;;;;6.97;6.28;;;;;;;15.02;80.06;100013.66;5131223;27;20215;-62
2023/06/29 02:45:16;;;;;;;6.35;5.75;;;;;;;15.05;80.11;100005.78;5130001;27;20270;-62
2023/06/29 02:47:44;;;;;;;7.00;6.30;;;;;;;15.06;79.70;100010.97;5136694;27;20207;-60
2023/06/29 02:50:13;;;;;;;6.67;6.00;;;;;;;15.10;79.62;100012.56;5132007;27;20227;-61
2023/06/29 02:52:41;;;;;;;7.67;6.10;;;;;;;15.13;79.35;100016.78;5131254;27;20213;-61
2023/06/29 02:55:10;;;;;;;6.93;6.07;;;;;;;15.10;79.25;100022.09;5136629;27;20293;-60
2023/06/29 02:57:38;;;;;;;6.90;6.20;;;;;;;15.16;79.38;100021.88;5133352;27;20204;-63
2023/06/29 03:00:08;;;;;;;7.30;6.60;;;;;;;15.19;79.00;100021.78;5135090;27;20221;-61
2023/06/29 03:02:36;;;;;;;7.28;5.70;;;;;;;15.20;78.70;100023.50;5133252;27;20251;-62
2023/06/29 03:05:05;;;;;;;7.63;6.57;;;;;;;15.23;78.93;100028.59;5134750;27;20219;-60
2023/06/29 03:07:34;;;;;;;8.65;6.47;;;;;;;15.23;78.54;100032.03;5137472;27;20203;-61
2023/06/29 03:10:02;;;;;;;7.40;6.55;;;;;;;15.26;78.37;100033.69;5132393;27;20241;-61
2023/06/29 03:12:30;;;;;;;7.63;6.80;;;;;;;15.29;78.37;100036.19;5133790;27;20196;-61
2023/06/29 03:14:58;;;;;;;6.18;5.60;;;;;;;15.25;77.88;100020.78;5133459;27;20203;-61
2023/06/29 03:17:27;;;;;;;6.97;6.28;;;;;;;15.31;77.43;100036.97;5130388;27;20570;-61
2023/06/29 03:19:55;;;;;;;10.82;9.35;;;;;;;15.28;77.48;100026.72;5136332;27;20199;-60
2023/06/29 03:22:25;;;;;;;7.80;6.63;;;;;;;15.25;77.29;100026.81;5130836;27;20203;-64
2023/06/29 03:24:54;;;;;;;7.43;6.00;;;;;;;15.23;77.24;100024.25;5132215;27;20283;-61
2023/06/29 03:27:22;;;;;;;8.25;6.13;;;;;;;15.22;77.13;100032.94;5128632;27;20233;-61
2023/06/29 03:29:52;;;;;;;6.45;5.88;;;;;;;15.23;77.32;100026.00;5134442;27;20199;-62
2023/06/29 03:32:20;;;;;;;7.18;6.47;;;;;;;15.20;77.61;100024.34;5129189;27;20263;-61
2023/06/29 03:34:48;;;;;;;6.97;6.22;;;;;;;15.20;77.49;100018.28;5130472;27;20349;-61
2023/06/29 03:37:16;;;;;;;8.38;6.57;;;;;;;15.20;77.69;100024.34;5128995;27;20190;-61
2023/06/29 03:39:44;;;;;;;7.50;6.78;;;;;;;15.18;77.66;100027.91;5131053;27;20207;-65
2023/06/29 03:42:14;;;;;;;8.75;6.45;;;;;;;15.20;77.57;100037.31;5137401;27;20222;-61
2023/06/29 03:44:42;;;;;;;9.03;6.57;;;;;;;15.21;77.40;100035.59;5133281;27;20199;-62
2023/06/29 03:47:10;;;;;;;6.80;6.20;;;;;;;15.23;77.41;100039.81;5131146;27;20628;-61
2023/06/29 03:49:38;;;;;;;6.80;6.13;;;;;;;15.26;77.42;100036.28;5134187;27;20194;-60
2023/06/29 03:52:07;;;;;;;9.18;6.55;;;;;;;15.24;77.16;100040.66;5133515;27;20195;-61
2023/06/29 03:54:35;;;;;;;8.82;6.28;;;;;;;15.28;77.83;100047.50;5130868;27;20573;-62
2023/06/29 03:57:04;;;;;;;6.82;6.15;;;;;;;15.37;77.27;100046.34;5131989;27;20209;-61
2023/06/29 03:59:33;;;;;;;6.13;5.53;;;;;;;15.45;77.08;100049.53;5133150;27;20202;-62
2023/06/29 04:02:01;;;;;;;8.27;6.50;;;;;;;15.48;76.82;100048.59;5130407;27;20221;-60
2023/06/29 04:04:29;;;;;;;6.78;6.13;;;;;;;15.54;76.13;100048.38;5133881;27;20289;-61
2023/06/29 04:06:57;;;;;;;5.80;5.30;;;;;;;15.58;76.28;100047.41;5133388;27;20691;-60
2023/06/29 04:09:25;;;;;;;7.95;6.45;;;;;;;15.59;76.24;100049.94;5130980;27;20203;-63
2023/06/29 04:11:53;;;;;;;7.60;5.93;;;;;;;15.63;76.17;100048.13;5134370;27;20219;-62
2023/06/29 04:14:21;;;;;;;6.45;5.80;;;;;;;15.60;76.38;100056.00;5125890;27;20199;-62
2023/06/29 04:16:51;;;;;;;9.88;5.93;;;;;;;15.62;76.66;100049.03;5132561;27;20207;-61
2023/06/29 04:19:19;;;;;;;6.15;5.55;;;;;;;15.66;76.14;100055.84;5132292;27;20199;-62
2023/06/29 04:21:47;;;;;;;6.38;5.78;;;;;;;15.72;76.03;100062.56;5133397;27;20203;-61
2023/06/29 04:24:15;;;;;;;7.25;5.88;;;;;;;15.76;76.07;100059.84;5131737;27;20203;-61
2023/06/29 04:26:43;;;;;;;5.53;5.03;;;;;;;15.83;75.84;100068.25;5130815;27;20199;-61
2023/06/29 04:29:11;;;;;;;6.78;5.85;;;;;;;15.82;75.80;100064.81;5118137;27;20255;-61
2023/06/29 04:31:39;;;;;;;6.38;5.78;;;;;;;15.79;75.57;100061.47;5118555;27;20812;-61
2023/06/29 04:34:08;;;;;;;7.28;5.28;;;;;;;15.79;75.49;100069.28;5117388;27;20203;-61
2023/06/29 04:36:36;;;;;;;8.25;6.22;;;;;;;15.76;75.64;100065.03;5120692;27;20243;-62
2023/06/29 04:39:04;;;;;;;6.20;5.60;;;;;;;15.78;75.67;100067.56;5117799;27;20276;-61
2023/06/29 04:41:32;;;;;;;7.25;6.43;;;;;;;15.74;75.60;100061.63;5121074;27;20202;-60
2023/06/29 04:44:01;;;;;;;7.78;6.55;;;;;;;15.67;76.15;100070.53;5117588;27;20722;-61
2023/06/29 04:46:30;;;;;;;7.85;6.57;;;;;;;15.62;76.66;100082.78;5128745;27;20203;-60
2023/06/29 04:49:06;;;;;;;7.13;6.38;;;;;;;15.56;76.69;100073.41;5118362;27;20670;-61
2023/06/29 04:51:36;;;;;;;7.55;6.85;;;;;;;15.55;77.10;100081.28;5118566;27;20240;-60
2023/06/29 04:54:05;;;;;;;7.68;6.97;;;;;;;15.57;77.29;100079.47;5115559;27;20572;-60
2023/06/29 04:56:33;;;;;;;9.32;7.10;;;;;;;15.57;76.83;100079.47;5117621;27;20210;-60
2023/06/29 04:59:01;;;;;;;7.28;6.65;;;;;;;15.56;77.12;100077.78;5115681;27;20207;-61
2023/06/29 05:01:29;;;;;;;9.52;7.30;;;;;;;15.51;77.46;100077.94;5115009;27;20294;-61
2023/06/29 05:03:57;;;;;;;8.52;7.45;;;;;;;15.50;77.60;100077.94;5113804;27;20319;-61
2023/06/29 05:06:29;;;;;;;10.03;7.30;;;;;;;15.49;77.45;100079.69;5118892;27;20195;-60
2023/06/29 05:08:58;;;;;;;7.43;6.72;;;;;;;15.54;77.55;100085.63;5122876;27;20286;-61
2023/06/29 05:11:26;;;;;;;10.30;7.00;;;;;;;15.63;77.13;100080.13;5119267;27;20689;-60
2023/06/29 05:13:54;;;;;;;7.47;6.72;;;;;;;15.74;76.70;100072.03;5130518;27;20220;-60
2023/06/29 05:16:22;;;;;;;8.88;7.50;;;;;;;15.89;76.08;100079.31;5141387;27;20578;-60
2023/06/29 05:18:50;;;;;;;8.40;7.03;;;;;;;15.96;75.83;100074.78;5134366;27;20200;-61
2023/06/29 05:21:18;;;;;;;8.52;6.63;;;;;;;16.10;75.60;100071.72;5134280;27;20207;-62
2023/06/29 05:23:46;;;;;;;20.00;9.75;;;;;;;16.23;75.31;100072.97;5137103;27;20203;-62
2023/06/29 05:26:15;;;;;;;9.82;7.07;;;;;;;16.40;74.92;100070.66;5134259;27;20233;-62
2023/06/29 05:28:43;;;;;;;11.00;6.95;;;;;;;16.41;75.00;100074.09;5135492;27;20365;-60
2023/06/29 05:31:30;;;;;;;10.32;6.57;;;;;;;16.36;74.45;100082.06;5131386;27;20210;-61
2023/06/29 05:33:59;;;;;;;10.13;6.50;;;;;;;16.39;74.77;100086.31;5135373;27;20327;-61
2023/06/29 05:36:27;;;;;;;9.07;7.60;;;;;;;16.43;74.71;100093.94;5138333;27;20296;-60
2023/06/29 05:38:55;;;;;;;10.23;8.88;;;;;;;16.47;74.86;100093.84;5134799;27;20319;-61
2023/06/29 05:41:24;;;;;;;10.65;8.48;;;;;;;16.42;74.44;100086.19;5131867;27;20714;-60
2023/06/29 05:43:52;;;;;;;15.07;9.05;;;;;;;16.42;75.12;100101.78;5135153;27;20220;-61
2023/06/29 05:46:20;;;;;;;12.25;9.35;;;;;;;16.40;74.91;100096.66;5135060;27;20207;-62
2023/06/29 05:48:49;;;;;;;12.35;8.75;;;;;;;16.39;75.62;100094.97;5132793;27;20195;-62
2023/06/29 05:51:16;;;;;;;10.50;8.15;;;;;;;16.40;75.63;100096.66;5131612;27;20203;-61
2023/06/29 05:53:44;;;;;;;11.07;9.23;;;;;;;16.42;75.41;100097.47;5132572;27;20203;-61
2023/06/29 05:56:12;;;;;;;12.88;9.07;;;;;;;16.42;75.61;100097.47;5134300;27;20214;-61
2023/06/29 05:58:42;;;;;;;12.57;9.35;;;;;;;16.46;76.02;100089.53;5130460;27;20302;-60
2023/06/29 06:01:10;;;;;;;11.45;9.02;;;;;;;16.54;75.63;100087.53;5128255;27;20251;-62
2023/06/29 06:03:38;;;;;;;12.50;9.23;;;;;;;16.58;75.09;100087.38;5126645;27;20216;-61
2023/06/29 06:06:06;;;;;;;11.77;9.30;;;;;;;16.69;74.93;100088.75;5132160;27;20210;-61
2023/06/29 06:08:34;;;;;;;13.25;9.13;;;;;;;16.78;74.77;100086.66;5130643;27;20203;-61
2023/06/29 06:11:03;;;;;;;13.15;9.20;;;;;;;16.87;74.54;100088.09;5133282;27;20202;-64
2023/06/29 06:13:30;;;;;;;10.52;9.43;;;;;;;16.92;74.10;100085.31;5129290;27;20199;-60
2023/06/29 06:16:00;;;;;;;12.80;9.13;;;;;;;17.00;74.24;100085.88;5132546;27;20240;-63
2023/06/29 06:18:28;;;;;;;12.50;9.20;;;;;;;17.09;73.70;100080.34;5134252;27;20203;-62
2023/06/29 06:20:56;;;;;;;12.07;10.25;;;;;;;17.24;73.03;100091.94;5134625;27;20199;-61
2023/06/29 06:23:24;;;;;;;10.90;9.35;;;;;;;17.33;72.76;100097.63;5131587;27;20227;-62
2023/06/29 06:25:52;;;;;;;11.48;9.52;;;;;;;17.50;72.15;100086.56;5132772;27;20207;-62
2023/06/29 06:28:21;;;;;;;11.15;8.55;;;;;;;17.69;71.35;100091.03;5131963;27;20210;-62
2023/06/29 06:30:49;;;;;;;10.95;8.52;;;;;;;17.88;70.88;100088.56;5131157;27;20544;-62
2023/06/29 06:33:21;;;;;;;8.93;8.05;;;;;;;18.13;69.76;100091.84;5133996;27;20215;-61
2023/06/29 06:35:49;;;;;;;9.30;7.90;;;;;;;18.27;69.30;100086.91;5131507;27;20230;-62
2023/06/29 06:38:17;;;;;;;9.02;7.88;;;;;;;18.36;68.29;100098.69;5133935;27;20226;-61
2023/06/29 06:40:47;;;;;;;7.93;7.13;;;;;;;18.75;68.08;100096.16;5134208;27;20709;-62
2023/06/29 06:43:16;;;;;;;7.88;7.07;;;;;;;21.41;61.74;100089.03;5133468;27;20238;-62
2023/06/29 06:45:44;;;;;;;8.75;7.25;;;;;;;23.17;54.97;100081.25;5131442;27;20238;-62
2023/06/29 06:48:12;;;;;;;7.15;6.28;;;;;;;23.32;51.04;100085.53;5137294;27;20199;-62
2023/06/29 06:50:41;;;;;;;7.72;6.20;;;;;;;23.37;52.74;100083.44;5115266;27;20232;-61
2023/06/29 06:53:10;;;;;;;7.20;6.38;;;;;;;24.59;49.84;100082.38;5123045;27;20257;-61
2023/06/29 06:55:38;;;;;;;8.38;6.30;;;;;;;24.98;46.39;100085.81;5130547;27;20228;-64
2023/06/29 06:58:07;;;;;;;11.95;6.63;;;;;;;24.61;48.95;100076.16;5130210;27;20203;-62
2023/06/29 07:00:35;;;;;;;7.25;6.55;;;;;;;24.28;48.10;100088.03;5128407;27;20196;-60
2023/06/29 07:03:03;;;;;;;7.82;6.45;;;;;;;25.65;47.59;100081.91;5131571;27;20303;-60
2023/06/29 07:05:31;;;;;;;9.60;6.53;;;;;;;28.16;41.09;100078.00;5136819;27;20311;-58
2023/06/29 07:08:01;;;;;;;7.43;6.53;;;;;;;30.50;34.70;100072.19;5136429;27;20275;-60
2023/06/29 07:10:29;;;;;;;7.47;5.75;;;;;;;31.76;32.63;100066.97;5131105;27;20633;-61
2023/06/29 07:12:57;;;;;;;6.57;5.97;;;;;;;33.03;30.65;100065.59;5128341;27;20234;-62
2023/06/29 07:15:25;;;;;;;8.10;6.10;;;;;;;34.42;28.88;100060.31;5126815;27;20195;-61
2023/06/29 07:17:53;;;;;;;5.55;4.75;;;;;;;35.72;26.44;100059.69;5129577;27;20286;-61
2023/06/29 07:20:21;;;;;;;5.70;5.15;;;;;;;36.54;25.21;100058.06;5131817;27;20201;-60
2023/06/29 07:22:52;;;;;;;6.57;4.95;;;;;;;37.29;24.36;100051.53;5129540;27;20203;-60
2023/06/29 07:25:24;;;;;;;5.40;4.45;;;;;;;38.16;23.44;100048.59;5131416;27;20298;-63
2023/06/29 07:27:52;;;;;;;4.65;4.25;;;;;;;38.12;23.59;100048.16;5120988;27;20199;-63
2023/06/29 07:30:20;;;;;;;5.90;4.25;;;;;;;37.99;22.59;100055.31;5125687;27;20199;-61
2023/06/29 07:32:48;;;;;;;4.95;4.45;;;;;;;37.68;23.00;100046.56;5130240;27;20290;-64
2023/06/29 07:35:16;;;;;;;4.57;4.28;;;;;;;37.74;22.94;100047.63;5125497;27;20258;-61
2023/06/29 07:37:44;;;;;;;4.25;3.83;;;;;;;37.72;23.04;100030.88;5127451;27;20194;-62
2023/06/29 07:40:12;;;;;;;4.57;4.18;;;;;;;37.57;23.25;100041.72;5133249;27;20195;-62
2023/06/29 07:42:42;;;;;;;4.95;4.20;;;;;;;37.08;23.17;100037.06;5133280;27;20202;-61
2023/06/29 07:45:10;;;;;;;4.43;4.03;;;;;;;36.41;24.90;100042.56;5127876;27;20258;-62
2023/06/29 07:47:38;;;;;;;4.32;3.72;;;;;;;35.72;24.88;100037.41;5128181;27;20730;-63
2023/06/29 07:50:07;;;;;;;4.50;4.10;;;;;;;34.46;27.11;100038.38;5125953;27;20255;-62
2023/06/29 07:52:36;;;;;;;4.05;3.75;;;;;;;33.30;28.49;100041.31;5132702;27;20286;-63
2023/06/29 07:55:04;;;;;;;5.95;4.38;;;;;;;31.96;30.62;100040.16;5123989;27;20283;-62
2023/06/29 07:57:32;;;;;;;4.55;3.83;;;;;;;30.36;33.50;100038.09;5119886;27;20248;-61
2023/06/29 08:00:06;;;;;;;4.95;3.63;;;;;;;29.07;36.01;100039.22;5127565;27;20199;-61
2023/06/29 08:02:34;;;;;;;4.43;3.47;;;;;;;28.04;38.17;100041.94;5122496;27;20203;-61
2023/06/29 08:05:02;;;;;;;4.15;3.72;;;;;;;27.26;39.72;100041.31;5127009;27;20223;-62
2023/06/29 08:07:34;;;;;;;4.53;3.83;;;;;;;26.74;41.22;100038.38;5121463;27;20274;-62
2023/06/29 08:10:02;;;;;;;5.07;3.60;;;;;;;26.22;42.88;100038.94;5126019;27;20610;-61
2023/06/29 08:12:30;;;;;;;5.07;3.88;;;;;;;25.77;43.14;100036.13;5131237;27;20518;-62
2023/06/29 08:14:58;;;;;;;3.80;3.50;;;;;;;25.62;43.87;100037.28;5130072;27;20195;-61
2023/06/29 08:17:30;;;;;;;3.83;2.97;;;;;;;25.51;44.34;100030.16;5128669;27;20203;-63
2023/06/29 08:19:58;;;;;;;4.30;3.40;;;;;;;25.38;44.41;100034.66;5130024;27;20211;-61
2023/06/29 08:22:26;;;;;;;6.07;3.30;;;;;;;25.15;45.60;100033.69;5130814;27;20244;-61
2023/06/29 08:24:54;;;;;;;3.75;3.45;;;;;;;24.95;46.41;100029.81;5128701;27;20574;-62
2023/06/29 08:27:22;;;;;;;3.60;3.30;;;;;;;24.93;46.15;100027.31;5127919;27;20331;-62
2023/06/29 08:29:52;;;;;;;6.80;3.38;;;;;;;24.69;46.79;100029.03;5132423;27;20571;-63
2023/06/29 08:32:20;;;;;;;3.65;3.03;;;;;;;24.71;46.84;100027.16;5128386;27;20342;-62
2023/06/29 08:34:50;;;;;;;3.95;3.30;;;;;;;24.78;46.42;100023.09;5127283;27;20287;-61
2023/06/29 08:37:18;;;;;;;3.40;3.10;;;;;;;24.79;46.75;100035.34;5124916;27;20248;-62
2023/06/29 08:39:46;;;;;;;3.60;3.15;;;;;;;24.74;46.30;100025.16;5130364;27;20226;-62
2023/06/29 08:42:14;;;;;;;4.65;3.20;;;;;;;24.81;46.82;100020.25;5131663;27;20218;-62
2023/06/29 08:44:42;;;;;;;3.90;3.58;;;;;;;24.82;46.75;100027.22;5128335;27;20234;-63
2023/06/29 08:47:12;;;;;;;3.75;3.30;;;;;;;24.84;46.59;100027.94;5131610;27;20199;-62
2023/06/29 08:49:42;;;;;;;5.80;3.33;;;;;;;24.80;45.31;100024.69;5135041;27;20251;-63
2023/06/29 08:52:16;;;;;;;4.82;3.22;;;;;;;24.71;45.67;100013.97;5128585;27;20388;-62
2023/06/29 08:54:46;;;;;;;3.78;3.20;;;;;;;24.76;45.82;100014.47;5128499;27;20195;-63
2023/06/29 08:57:14;;;;;;;4.82;3.55;;;;;;;24.84;46.14;100020.03;5129889;27;20298;-63
2023/06/29 08:59:47;;;;;;;3.92;3.63;;;;;;;24.91;46.33;100015.19;5131264;27;20302;-61
2023/06/29 09:02:15;;;;;;;3.85;3.47;;;;;;;24.92;46.25;100019.50;5133110;27;20604;-62
2023/06/29 09:04:45;;;;;;;4.35;3.13;;;;;;;24.96;45.34;100013.88;5133810;27;20214;-62
2023/06/29 09:07:15;;;;;;;3.47;3.13;;;;;;;24.86;44.43;100018.16;5135954;27;20210;-62
2023/06/29 09:09:44;;;;;;;3.60;3.30;;;;;;;24.92;45.13;100012.41;5131943;27;20612;-62
2023/06/29 09:12:12;;;;;;;8.63;3.55;;;;;;;25.00;45.59;100009.22;5132521;27;20758;-63
2023/06/29 09:14:43;;;;;;;3.70;3.40;;;;;;;25.09;45.03;100013.84;5142636;27;20195;-62
2023/06/29 09:17:15;;;;;;;3.67;3.38;;;;;;;25.23;44.81;100010.25;5132766;27;20245;-62
2023/06/29 09:19:53;;;;;;;4.00;3.38;;;;;;;25.32;44.55;100004.28;5128926;27;20637;-63
2023/06/29 09:22:24;;;;;;;5.70;3.78;;;;;;;25.45;44.60;100010.34;5132444;27;20230;-62
2023/06/29 09:24:56;;;;;;;3.85;3.55;;;;;;;25.45;43.82;100004.25;5133383;27;20219;-63
2023/06/29 09:27:40;;;;;;;3.22;2.92;;;;;;;25.37;43.40;100004.81;5127881;27;20191;-64
2023/06/29 09:30:09;;;;;;;4.00;3.55;;;;;;;25.46;43.59;100004.13;5132171;27;20206;-63
2023/06/29 09:32:38;;;;;;;5.70;3.42;;;;;;;25.63;43.92;99999.38;5129045;27;20252;-63
2023/06/29 09:35:08;;;;;;;3.95;3.45;;;;;;;25.76;42.46;99993.06;5122752;27;20235;-63
2023/06/29 09:37:38;;;;;;;4.00;3.28;;;;;;;25.83;42.22;100001.38;5131076;27;20203;-63
2023/06/29 09:40:09;;;;;;;4.03;3.55;;;;;;;25.89;42.37;99998.28;5133550;27;20195;-62
2023/06/29 09:42:39;;;;;;;3.97;2.95;;;;;;;25.89;41.86;99992.19;5130605;27;20570;-62
2023/06/29 09:45:11;;;;;;;5.18;3.20;;;;;;;25.84;40.98;99995.13;5134445;27;20256;-62
2023/06/29 09:47:42;;;;;;;3.33;3.10;;;;;;;25.78;41.33;99992.97;5126504;27;20244;-61
2023/06/29 09:50:19;;;;;;;3.80;3.10;;;;;;;25.82;41.10;99988.31;5135102;27;20211;-62
2023/06/29 09:52:51;;;;;;;3.30;2.92;;;;;;;25.76;40.19;99992.22;5128239;27;20230;-61
2023/06/29 09:55:30;;;;;;;3.22;2.90;;;;;;;25.88;40.79;99986.03;5133544;27;20202;-62
2023/06/29 09:57:59;;;;;;;4.63;2.90;;;;;;;25.98;40.54;99988.81;5129974;27;20207;-62
2023/06/29 10:00:28;;;;;;;3.40;3.10;;;;;;;26.54;39.75;99998.59;5127315;27;20549;-63
2023/06/29 10:02:56;;;;;;;2.70;2.47;;;;;;;27.40;38.04;99982.81;5125888;27;20195;-61
2023/06/29 10:05:25;;;;;;;5.47;3.03;;;;;;;28.56;35.67;99971.22;5134455;27;20298;-63
2023/06/29 10:07:55;;;;;;;4.30;2.90;;;;;;;29.52;32.67;99959.88;5134196;27;20933;-61
2023/06/29 10:10:25;;;;;;;3.30;3.00;;;;;;;30.69;31.17;99973.69;5131569;27;20220;-61
2023/06/29 10:12:56;;;;;;;3.03;2.72;;;;;;;31.98;29.16;99968.88;5133588;27;20574;-63
2023/06/29 10:15:27;;;;;;;4.85;3.10;;;;;;;32.98;27.37;99955.81;5130360;27;20208;-62
2023/06/29 10:18:02;;;;;;;3.42;3.13;;;;;;;33.17;26.28;99967.00;5125544;27;20227;-64
2023/06/29 10:20:33;;;;;;;5.10;3.05;;;;;;;33.00;26.18;99976.00;5131358;27;20203;-62
2023/06/29 10:23:06;;;;;;;3.75;2.92;;;;;;;33.75;25.26;99970.53;5124576;27;20251;-62
2023/06/29 10:25:39;;;;;;;3.05;2.50;;;;;;;33.55;24.86;99962.03;5128647;27;20211;-61
2023/06/29 10:28:09;;;;;;;2.90;2.50;;;;;;;33.25;24.73;99965.34;5119895;27;20211;-61
2023/06/29 10:30:47;;;;;;;3.53;2.85;;;;;;;33.72;25.46;99960.16;5133635;27;20224;-67
2023/06/29 10:33:22;;;;;;;2.88;2.67;;;;;;;34.26;23.46;99955.03;5124775;27;20239;-67
2023/06/29 10:35:52;;;;;;;6.32;2.63;;;;;;;34.70;24.08;99967.09;5126382;27;20685;-67
2023/06/29 10:38:28;;;;;;;2.80;2.60;;;;;;;35.16;23.01;99954.56;5129758;27;20278;-66
2023/06/29 10:40:56;;;;;;;4.80;3.00;;;;;;;34.81;23.28;99966.69;5133962;27;20210;-67
2023/06/29 10:43:26;;;;;;;3.03;2.70;;;;;;;34.51;23.40;99955.81;5130186;27;20256;-67
2023/06/29 10:45:54;;;;;;;3.55;2.92;;;;;;;35.08;23.40;99962.66;5131240;27;20226;-67
2023/06/29 10:48:22;;;;;;;3.92;2.63;;;;;;;35.84;22.28;99955.50;5130996;27;20615;-67
2023/06/29 10:51:13;;;;;;;5.28;2.70;;;;;;;36.37;21.01;99953.56;5130588;27;20207;-67
2023/06/29 10:53:47;;;;;;;3.03;2.83;;;;;;;35.88;20.92;99948.75;5131168;27;20202;-67
2023/06/29 10:56:29;;;;;;;3.13;2.60;;;;;;;35.34;22.38;99946.22;5125953;27;20214;-66
2023/06/29 10:58:59;;;;;;;3.55;2.97;;;;;;;35.61;22.01;99946.66;5119283;27;20596;-66
2023/06/29 11:01:27;;;;;;;3.17;2.97;;;;;;;35.07;22.43;99937.72;5130304;27;20234;-66
2023/06/29 11:03:55;;;;;;;6.53;3.20;;;;;;;34.05;23.56;99939.56;5129278;27;20741;-65
2023/06/29 11:06:23;;;;;;;3.40;3.10;;;;;;;33.72;23.79;99932.59;5132882;27;20257;-66
2023/06/29 11:09:13;;;;;;;3.47;2.75;;;;;;;33.75;24.13;99932.28;5126168;27;20742;-66
2023/06/29 11:11:42;;;;;;;3.90;3.10;;;;;;;32.99;24.97;99938.78;5125529;27;20200;-67
2023/06/29 11:14:11;;;;;;;3.45;3.03;;;;;;;33.45;24.78;99931.94;5132291;27;20546;-66
2023/06/29 11:16:40;;;;;;;3.28;3.03;;;;;;;33.21;25.46;99934.63;5129612;27;20230;-67
2023/06/29 11:19:08;;;;;;;2.83;2.63;;;;;;;32.13;26.07;99931.81;5128050;27;20568;-67
2023/06/29 11:21:58;;;;;;;2.88;2.67;;;;;;;32.47;26.26;99927.28;5130049;27;20207;-67
2023/06/29 11:24:27;;;;;;;5.68;3.35;;;;;;;33.68;24.52;99921.44;5128268;27;20199;-68
2023/06/29 11:26:55;;;;;;;2.80;2.60;;;;;;;33.42;24.20;99921.59;5125313;27;20219;-66
2023/06/29 11:29:23;;;;;;;3.80;3.03;;;;;;;32.12;25.49;99933.66;5124064;27;20203;-67
2023/06/29 11:31:51;;;;;;;2.83;2.63;;;;;;;31.81;26.48;99927.09;5127953;27;20290;-66
2023/06/29 11:34:19;;;;;;;3.95;3.22;;;;;;;32.92;24.99;99917.25;5126106;27;20211;-67
2023/06/29 11:36:47;;;;;;;2.85;2.65;;;;;;;33.91;23.42;99910.84;5130248;27;20230;-67